createdAt,value
2022-11-01T01:55:09.483Z,13.86871338
2022-11-01T01:56:02.600Z,13.86871338
2022-11-01T01:57:03.105Z,13.87878418
2022-11-01T01:58:03.598Z,13.87878418
2022-11-01T01:59:04.029Z,13.89892578
2022-11-01T02:00:05.092Z,13.85864258
2022-11-01T02:01:36.656Z,13.83850098
2022-11-01T02:02:37.041Z,13.83850098
2022-11-01T02:03:37.522Z,13.85864258
2022-11-01T02:05:53.763Z,13.87878418
2022-11-01T02:06:39.094Z,13.89892578
2022-11-01T02:07:40.450Z,13.89892578
2022-11-01T02:08:40.927Z,13.89892578
2022-11-01T02:09:41.442Z,13.90899658
2022-11-01T02:10:41.978Z,13.92913818
2022-11-01T02:11:43.468Z,13.93920898
2022-11-01T02:12:44.011Z,13.95935059
2022-11-01T02:13:44.471Z,13.95935059
2022-11-01T02:14:44.955Z,13.97949219
2022-11-01T02:15:45.509Z,13.95935059
2022-11-01T02:16:46.013Z,13.92913818
2022-11-01T02:17:47.456Z,13.89892578
2022-11-01T02:18:47.885Z,13.89892578
2022-11-01T02:19:48.367Z,13.87878418
2022-11-01T02:20:48.907Z,13.92913818
2022-11-01T02:21:49.465Z,13.93920898
2022-11-01T02:22:50.974Z,13.93920898
2022-11-01T02:23:51.483Z,13.93920898
2022-11-01T02:24:51.925Z,13.93920898
2022-11-01T02:25:52.378Z,13.92913818
2022-11-01T02:26:52.941Z,13.90899658
2022-11-01T02:27:54.460Z,13.86871338
2022-11-01T02:28:54.963Z,13.83850098
2022-11-01T02:29:55.461Z,13.80828857
2022-11-01T02:30:55.979Z,13.79821777
2022-11-01T02:31:56.479Z,13.78814697
2022-11-01T02:32:57.922Z,13.78814697
2022-11-01T02:33:58.393Z,13.78814697
2022-11-01T02:34:58.938Z,13.82843018
2022-11-01T02:35:59.501Z,13.80828857
2022-11-01T02:37:00.054Z,13.80828857
2022-11-01T02:38:01.454Z,13.78814697
2022-11-01T02:39:02.084Z,13.74786377
2022-11-01T02:40:02.474Z,13.71765137
2022-11-01T02:41:02.941Z,13.68743896
2022-11-01T02:42:03.443Z,13.65722656
2022-11-01T02:43:04.073Z,13.68743896
2022-11-01T02:44:34.908Z,13.68743896
2022-11-01T02:45:35.379Z,13.70758057
2022-11-01T02:46:35.842Z,13.71765137
2022-11-01T02:47:36.352Z,13.72772217
2022-11-01T02:48:36.830Z,13.75793457
2022-11-01T02:49:37.321Z,13.75793457
2022-11-01T02:50:38.675Z,13.80828857
2022-11-01T02:51:39.107Z,13.83850098
2022-11-01T02:52:39.587Z,13.82843018
2022-11-01T02:53:40.703Z,13.85864258
2022-11-01T02:54:41.216Z,13.83850098
2022-11-01T02:55:41.832Z,13.83850098
2022-11-01T02:56:42.178Z,13.86871338
2022-11-01T02:57:42.657Z,13.87878418
2022-11-01T02:58:43.753Z,13.89892578
2022-11-01T02:59:44.258Z,13.89892578
2022-11-01T03:00:44.942Z,13.90899658
2022-11-01T03:01:45.488Z,13.92913818
2022-11-01T03:02:45.793Z,13.93920898
2022-11-01T03:03:46.219Z,13.95935059
2022-11-01T03:04:46.684Z,13.95935059
2022-11-01T03:05:47.232Z,13.92913818
2022-11-01T03:06:47.733Z,13.92913818
2022-11-01T03:07:49.022Z,13.95935059
2022-11-01T03:08:49.527Z,13.97949219
2022-11-01T03:09:50.048Z,13.90899658
2022-11-01T03:10:50.844Z,13.86871338
2022-11-01T03:11:51.288Z,13.85864258
2022-11-01T03:12:51.745Z,13.89892578
2022-11-01T03:13:52.209Z,13.97949219
2022-11-01T03:14:52.695Z,14.04998779
2022-11-01T03:15:53.182Z,14.1607666
2022-11-01T03:16:53.677Z,14.23126221
2022-11-01T03:17:54.984Z,14.30175781
2022-11-01T03:18:55.384Z,14.39239502
2022-11-01T03:19:55.880Z,14.49310303
2022-11-01T03:20:56.373Z,14.56359863
2022-11-01T03:21:56.841Z,14.60388184
2022-11-01T03:22:57.298Z,14.64416504
2022-11-01T03:23:58.667Z,14.69451904
2022-11-01T03:24:59.182Z,14.75494385
2022-11-01T03:25:59.699Z,14.78515625
2022-11-01T03:27:00.241Z,14.79522705
2022-11-01T03:28:01.464Z,14.86572266
2022-11-01T03:29:01.906Z,14.86572266
2022-11-01T03:30:02.380Z,14.89593506
2022-11-01T03:31:02.920Z,14.89593506
2022-11-01T03:32:03.891Z,14.90600586
2022-11-01T03:33:34.688Z,14.93621826
2022-11-01T03:34:35.105Z,14.94628906
2022-11-01T03:35:35.590Z,14.96643066
2022-11-01T03:36:36.103Z,14.99664307
2022-11-01T03:37:36.648Z,15.02685547
2022-11-01T03:38:37.711Z,15.02685547
2022-11-01T03:39:38.143Z,15.04699707
2022-11-01T03:40:38.605Z,15.06713867
2022-11-01T03:41:39.125Z,15.06713867
2022-11-01T03:42:39.646Z,15.06713867
2022-11-01T03:43:40.185Z,15.08728027
2022-11-01T03:44:40.602Z,15.10742188
2022-11-01T03:45:41.100Z,15.08728027
2022-11-01T03:46:41.716Z,15.08728027
2022-11-01T03:47:42.948Z,15.08728027
2022-11-01T03:48:43.976Z,15.08728027
2022-11-01T03:49:44.482Z,15.08728027
2022-11-01T03:50:44.979Z,15.10742188
2022-11-01T03:51:45.415Z,15.10742188
2022-11-01T03:52:45.950Z,15.11749268
2022-11-01T03:53:46.458Z,15.12756348
2022-11-01T03:54:46.941Z,15.12756348
2022-11-01T03:55:47.398Z,15.11749268
2022-11-01T03:56:47.828Z,15.10742188
2022-11-01T03:57:48.367Z,15.10742188
2022-11-01T03:58:49.721Z,15.08728027
2022-11-01T03:59:50.440Z,15.06713867
2022-11-01T04:00:50.993Z,15.04699707
2022-11-01T04:01:51.500Z,15.02685547
2022-11-01T04:02:51.982Z,15.02685547
2022-11-01T04:03:52.517Z,15.03692627
2022-11-01T04:04:52.927Z,15.04699707
2022-11-01T04:05:53.335Z,15.03692627
2022-11-01T04:06:53.862Z,15.00671387
2022-11-01T04:07:54.375Z,14.99664307
2022-11-01T04:08:55.729Z,14.97650146
2022-11-01T04:09:56.210Z,14.96643066
2022-11-01T04:10:56.682Z,14.99664307
2022-11-01T04:11:57.118Z,14.96643066
2022-11-01T04:12:58.457Z,14.96643066
2022-11-01T04:13:59.012Z,14.97650146
2022-11-01T04:14:59.492Z,14.97650146
2022-11-01T04:16:00.028Z,14.97650146
2022-11-01T04:17:00.461Z,14.99664307
2022-11-01T04:18:00.915Z,14.99664307
2022-11-01T04:19:02.309Z,14.97650146
2022-11-01T04:20:03.202Z,14.96643066
2022-11-01T04:21:33.902Z,14.94628906
2022-11-01T04:22:34.401Z,14.93621826
2022-11-01T04:23:34.919Z,14.94628906
2022-11-01T04:24:35.972Z,14.94628906
2022-11-01T04:25:36.431Z,14.97650146
2022-11-01T04:26:36.904Z,14.96643066
2022-11-01T04:27:38.176Z,14.97650146
2022-11-01T04:28:39.446Z,14.96643066
2022-11-01T04:29:39.990Z,14.93621826
2022-11-01T04:30:40.541Z,14.93621826
2022-11-01T04:31:41.945Z,14.94628906
2022-11-01T04:32:42.407Z,14.94628906
2022-11-01T04:33:42.842Z,14.96643066
2022-11-01T04:34:43.402Z,14.96643066
2022-11-01T04:35:43.861Z,14.99664307
2022-11-01T04:36:44.347Z,14.99664307
2022-11-01T04:37:45.442Z,14.99664307
2022-11-01T04:38:46.472Z,15.00671387
2022-11-01T04:39:47.079Z,15.00671387
2022-11-01T04:40:47.528Z,14.94628906
2022-11-01T04:41:48.040Z,14.90600586
2022-11-01T04:42:48.502Z,14.82543945
2022-11-01T04:43:48.925Z,14.85565186
2022-11-01T04:44:49.507Z,14.84558105
2022-11-01T04:45:49.956Z,14.85565186
2022-11-01T04:46:50.603Z,14.84558105
2022-11-01T04:47:51.062Z,14.86572266
2022-11-01T04:48:52.466Z,14.86572266
2022-11-01T04:49:52.995Z,14.84558105
2022-11-01T04:50:53.480Z,14.82543945
2022-11-01T04:51:53.964Z,14.81536865
2022-11-01T04:52:54.457Z,14.78515625
2022-11-01T04:53:55.449Z,14.78515625
2022-11-01T04:54:55.997Z,14.74487305
2022-11-01T04:55:56.514Z,14.72473145
2022-11-01T04:56:56.985Z,14.72473145
2022-11-01T04:57:57.428Z,14.72473145
2022-11-01T04:58:58.442Z,14.71466064
2022-11-01T04:59:58.932Z,14.72473145
2022-11-01T05:00:59.468Z,14.72473145
2022-11-01T05:02:00.051Z,14.75494385
2022-11-01T05:03:00.773Z,14.74487305
2022-11-01T05:04:01.688Z,14.77508545
2022-11-01T05:05:02.151Z,14.71466064
2022-11-01T05:06:33.103Z,14.64416504
2022-11-01T05:07:33.589Z,14.63409424
2022-11-01T05:08:34.966Z,14.57366943
2022-11-01T05:09:35.395Z,14.59381104
2022-11-01T05:10:35.902Z,14.57366943
2022-11-01T05:11:36.411Z,14.57366943
2022-11-01T05:12:36.889Z,14.56359863
2022-11-01T05:13:37.384Z,14.57366943
2022-11-01T05:14:37.865Z,14.57366943
2022-11-01T05:15:40.098Z,14.54345703
2022-11-01T05:16:38.819Z,14.54345703
2022-11-01T05:17:39.295Z,14.52331543
2022-11-01T05:18:40.456Z,14.49310303
2022-11-01T05:19:40.924Z,14.45281982
2022-11-01T05:20:41.439Z,14.42260742
2022-11-01T05:21:41.831Z,14.39239502
2022-11-01T05:22:42.359Z,14.36218262
2022-11-01T05:23:43.467Z,14.34204102
2022-11-01T05:24:43.962Z,14.34204102
2022-11-01T05:25:44.448Z,14.30175781
2022-11-01T05:26:44.903Z,14.31182861
2022-11-01T05:27:45.381Z,14.34204102
2022-11-01T05:28:46.481Z,14.36218262
2022-11-01T05:29:46.972Z,14.39239502
2022-11-01T05:30:47.505Z,14.39239502
2022-11-01T05:31:47.887Z,14.38232422
2022-11-01T05:32:48.425Z,14.38232422
2022-11-01T05:33:48.897Z,14.35211182
2022-11-01T05:34:49.371Z,14.35211182
2022-11-01T05:35:49.869Z,14.35211182
2022-11-01T05:36:50.603Z,14.34204102
2022-11-01T05:37:51.054Z,14.29168701
2022-11-01T05:38:52.464Z,14.23126221
2022-11-01T05:39:52.985Z,14.23126221
2022-11-01T05:40:53.508Z,14.24133301
2022-11-01T05:41:56.853Z,14.23126221
2022-11-01T05:42:54.398Z,14.23126221
2022-11-01T05:43:54.867Z,14.24133301
2022-11-01T05:44:55.383Z,14.26147461
2022-11-01T05:45:55.946Z,14.26147461
2022-11-01T05:46:56.447Z,14.27154541
2022-11-01T05:47:56.910Z,14.29168701
2022-11-01T05:48:57.973Z,14.30175781
2022-11-01T05:49:58.517Z,14.26147461
2022-11-01T05:50:58.984Z,14.27154541
2022-11-01T05:51:59.416Z,14.29168701
2022-11-01T05:53:00.367Z,14.30175781
2022-11-01T05:54:01.007Z,14.30175781
2022-11-01T05:55:01.501Z,14.31182861
2022-11-01T05:56:32.458Z,14.29168701
2022-11-01T05:57:33.663Z,14.26147461
2022-11-01T05:58:33.346Z,14.23126221
2022-11-01T05:59:34.744Z,14.1607666
2022-11-01T06:00:35.220Z,14.1708374
2022-11-01T06:01:35.855Z,14.190979
2022-11-01T06:02:36.249Z,14.1607666
2022-11-01T06:03:36.591Z,14.1607666
2022-11-01T06:04:37.099Z,14.1708374
2022-11-01T06:05:37.561Z,14.1708374
2022-11-01T06:06:38.087Z,14.190979
2022-11-01T06:07:38.498Z,14.1708374
2022-11-01T06:08:38.971Z,14.1305542
2022-11-01T06:09:40.220Z,14.1305542
2022-11-01T06:10:40.741Z,14.1305542
2022-11-01T06:11:41.918Z,14.1607666
2022-11-01T06:12:41.710Z,14.1708374
2022-11-01T06:13:42.158Z,14.190979
2022-11-01T06:14:42.613Z,14.2010498
2022-11-01T06:15:43.152Z,14.190979
2022-11-01T06:16:43.708Z,14.24133301
2022-11-01T06:17:44.139Z,14.26147461
2022-11-01T06:18:45.206Z,14.26147461
2022-11-01T06:19:45.698Z,14.29168701
2022-11-01T06:20:46.248Z,14.30175781
2022-11-01T06:21:47.477Z,14.30175781
2022-11-01T06:22:47.931Z,14.30175781
2022-11-01T06:23:48.440Z,14.29168701
2022-11-01T06:24:48.893Z,14.26147461
2022-11-01T06:25:49.414Z,14.27154541
2022-11-01T06:26:49.960Z,14.29168701
2022-11-01T06:27:50.569Z,14.26147461
2022-11-01T06:28:51.084Z,14.26147461
2022-11-01T06:29:52.169Z,14.27154541
2022-11-01T06:30:52.697Z,14.29168701
2022-11-01T06:31:53.200Z,14.29168701
2022-11-01T06:32:54.214Z,14.30175781
2022-11-01T06:33:54.698Z,14.29168701
2022-11-01T06:34:55.125Z,14.31182861
2022-11-01T06:35:55.645Z,14.34204102
2022-11-01T06:36:56.173Z,14.35211182
2022-11-01T06:37:56.634Z,14.38232422
2022-11-01T06:38:57.076Z,14.38232422
2022-11-01T06:39:58.252Z,14.38232422
2022-11-01T06:40:58.775Z,14.38232422
2022-11-01T06:41:59.281Z,14.38232422
2022-11-01T06:43:00.902Z,14.38232422
2022-11-01T06:44:01.350Z,14.39239502
2022-11-01T06:45:32.029Z,14.42260742
2022-11-01T06:46:32.531Z,14.42260742
2022-11-01T06:47:33.267Z,14.44274902
2022-11-01T06:48:33.695Z,14.42260742
2022-11-01T06:49:34.975Z,14.45281982
2022-11-01T06:50:35.433Z,14.44274902
2022-11-01T06:51:35.959Z,14.44274902
2022-11-01T06:52:36.563Z,14.44274902
2022-11-01T06:53:37.011Z,14.45281982
2022-11-01T06:54:38.448Z,14.45281982
2022-11-01T06:55:38.975Z,14.45281982
2022-11-01T06:56:39.513Z,14.45281982
2022-11-01T06:57:40.033Z,14.48303223
2022-11-01T06:58:40.521Z,14.48303223
2022-11-01T06:59:41.955Z,14.49310303
2022-11-01T07:00:42.555Z,14.52331543
2022-11-01T07:01:42.968Z,14.49310303
2022-11-01T07:02:43.469Z,14.49310303
2022-11-01T07:03:43.888Z,14.49310303
2022-11-01T07:04:44.355Z,14.53338623
2022-11-01T07:05:44.823Z,14.53338623
2022-11-01T07:06:45.302Z,14.54345703
2022-11-01T07:07:46.516Z,14.54345703
2022-11-01T07:08:46.975Z,14.57366943
2022-11-01T07:09:48.461Z,14.59381104
2022-11-01T07:10:48.928Z,14.60388184
2022-11-01T07:11:49.393Z,14.60388184
2022-11-01T07:12:49.927Z,14.61395264
2022-11-01T07:13:50.542Z,14.63409424
2022-11-01T07:14:51.007Z,14.66430664
2022-11-01T07:15:51.484Z,14.67437744
2022-11-01T07:16:51.952Z,14.71466064
2022-11-01T07:17:52.429Z,14.71466064
2022-11-01T07:18:52.939Z,14.72473145
2022-11-01T07:19:54.239Z,14.74487305
2022-11-01T07:20:54.768Z,14.75494385
2022-11-01T07:21:55.220Z,14.77508545
2022-11-01T07:22:55.684Z,14.77508545
2022-11-01T07:23:56.219Z,14.77508545
2022-11-01T07:24:57.217Z,14.78515625
2022-11-01T07:25:57.746Z,14.78515625
2022-11-01T07:26:58.216Z,14.79522705
2022-11-01T07:27:58.684Z,14.79522705
2022-11-01T07:28:59.184Z,14.79522705
2022-11-01T07:30:00.277Z,14.82543945
2022-11-01T07:31:31.209Z,14.82543945
2022-11-01T07:32:33.306Z,14.82543945
2022-11-01T07:33:32.109Z,14.84558105
2022-11-01T07:34:33.487Z,14.84558105
2022-11-01T07:35:34.046Z,14.84558105
2022-11-01T07:36:34.569Z,14.86572266
2022-11-01T07:37:35.013Z,14.89593506
2022-11-01T07:38:35.495Z,14.90600586
2022-11-01T07:39:37.005Z,14.90600586
2022-11-01T07:40:37.515Z,14.93621826
2022-11-01T07:41:37.954Z,14.94628906
2022-11-01T07:42:38.447Z,14.94628906
2022-11-01T07:43:38.900Z,14.93621826
2022-11-01T07:44:39.347Z,14.97650146
2022-11-01T07:45:39.837Z,14.97650146
2022-11-01T07:46:40.399Z,14.96643066
2022-11-01T07:47:40.880Z,14.97650146
2022-11-01T07:48:42.002Z,14.97650146
2022-11-01T07:49:43.020Z,14.99664307
2022-11-01T07:50:43.533Z,14.96643066
2022-11-01T07:51:44.007Z,14.99664307
2022-11-01T07:52:45.467Z,14.99664307
2022-11-01T07:53:45.918Z,15.02685547
2022-11-01T07:54:46.400Z,15.00671387
2022-11-01T07:55:46.898Z,15.02685547
2022-11-01T07:56:47.387Z,15.02685547
2022-11-01T07:57:48.702Z,15.02685547
2022-11-01T07:58:49.204Z,15.02685547
2022-11-01T07:59:50.528Z,15.04699707
2022-11-01T08:00:51.051Z,15.04699707
2022-11-01T08:01:51.689Z,15.04699707
2022-11-01T08:02:52.066Z,15.06713867
2022-11-01T08:03:52.603Z,15.06713867
2022-11-01T08:04:53.062Z,15.08728027
2022-11-01T08:05:53.606Z,15.10742188
2022-11-01T08:06:54.117Z,15.10742188
2022-11-01T08:07:54.577Z,15.11749268
2022-11-01T08:08:55.113Z,15.12756348
2022-11-01T08:09:56.472Z,15.11749268
2022-11-01T08:10:56.994Z,15.11749268
2022-11-01T08:11:57.520Z,15.10742188
2022-11-01T08:12:57.982Z,15.11749268
2022-11-01T08:14:02.770Z,15.11749268
2022-11-01T08:14:58.899Z,15.12756348
2022-11-01T08:15:59.458Z,15.12756348
2022-11-01T08:17:30.608Z,15.14770508
2022-11-01T08:18:31.136Z,15.15777588
2022-11-01T08:19:31.640Z,15.15777588
2022-11-01T08:20:32.705Z,15.15777588
2022-11-01T08:21:33.220Z,15.17791748
2022-11-01T08:22:33.805Z,15.19805908
2022-11-01T08:23:34.270Z,15.19805908
2022-11-01T08:24:34.788Z,15.21820068
2022-11-01T08:25:36.172Z,15.22827148
2022-11-01T08:26:36.627Z,15.22827148
2022-11-01T08:27:37.139Z,15.24841309
2022-11-01T08:28:37.645Z,15.27862549
2022-11-01T08:29:38.110Z,15.29876709
2022-11-01T08:30:39.204Z,15.30883789
2022-11-01T08:31:39.744Z,15.32897949
2022-11-01T08:32:40.237Z,15.32897949
2022-11-01T08:33:40.744Z,15.32897949
2022-11-01T08:34:41.254Z,15.33905029
2022-11-01T08:35:45.889Z,15.34912109
2022-11-01T08:36:42.119Z,15.3692627
2022-11-01T08:37:42.632Z,15.3692627
2022-11-01T08:38:43.125Z,15.34912109
2022-11-01T08:39:43.673Z,15.3793335
2022-11-01T08:40:44.685Z,15.3793335
2022-11-01T08:41:45.146Z,15.3692627
2022-11-01T08:42:45.618Z,15.3692627
2022-11-01T08:43:46.107Z,15.3692627
2022-11-01T08:44:46.603Z,15.3793335
2022-11-01T08:45:47.104Z,15.4095459
2022-11-01T08:46:47.577Z,15.4095459
2022-11-01T08:47:48.106Z,15.3994751
2022-11-01T08:48:48.594Z,15.4296875
2022-11-01T08:49:49.800Z,15.4296875
2022-11-01T08:50:50.526Z,15.3994751
2022-11-01T08:51:51.740Z,15.3994751
2022-11-01T08:52:52.250Z,15.4095459
2022-11-01T08:53:52.773Z,15.3692627
2022-11-01T08:54:54.038Z,15.34912109
2022-11-01T08:55:54.466Z,15.3692627
2022-11-01T08:56:54.869Z,15.32897949
2022-11-01T08:57:55.389Z,15.32897949
2022-11-01T08:58:55.847Z,15.33905029
2022-11-01T08:59:56.379Z,15.34912109
2022-11-01T09:00:57.737Z,15.33905029
2022-11-01T09:01:58.423Z,15.34912109
2022-11-01T09:02:58.620Z,15.33905029
2022-11-01T09:03:59.632Z,15.3692627
2022-11-01T09:05:30.412Z,15.34912109
2022-11-01T09:06:33.867Z,15.33905029
2022-11-01T09:07:31.268Z,15.34912109
2022-11-01T09:08:31.902Z,15.3793335
2022-11-01T09:09:32.430Z,15.3994751
2022-11-01T09:10:33.754Z,15.4095459
2022-11-01T09:11:34.200Z,15.4296875
2022-11-01T09:12:34.709Z,15.4296875
2022-11-01T09:13:35.184Z,15.4397583
2022-11-01T09:14:35.786Z,15.4598999
2022-11-01T09:15:36.285Z,15.4901123
2022-11-01T09:16:36.720Z,15.51025391
2022-11-01T09:17:37.157Z,15.4901123
2022-11-01T09:18:37.595Z,15.4901123
2022-11-01T09:19:38.828Z,15.4397583
2022-11-01T09:20:40.237Z,15.4397583
2022-11-01T09:21:40.682Z,15.4800415
2022-11-01T09:22:41.148Z,15.4901123
2022-11-01T09:23:41.722Z,15.51025391
2022-11-01T09:24:42.178Z,15.53039551
2022-11-01T09:25:42.697Z,15.53039551
2022-11-01T09:26:43.145Z,15.52032471
2022-11-01T09:27:43.607Z,15.51025391
2022-11-01T09:28:44.048Z,15.4598999
2022-11-01T09:29:46.689Z,15.4397583
2022-11-01T09:30:50.267Z,15.4397583
2022-11-01T09:31:46.249Z,15.4296875
2022-11-01T09:32:46.711Z,15.3692627
2022-11-01T09:33:47.189Z,15.3692627
2022-11-01T09:34:47.693Z,15.3793335
2022-11-01T09:35:51.394Z,15.3994751
2022-11-01T09:36:48.685Z,15.3994751
2022-11-01T09:37:49.203Z,15.3793335
2022-11-01T09:38:49.627Z,15.3692627
2022-11-01T09:39:50.059Z,15.3692627
2022-11-01T09:40:51.315Z,15.3692627
2022-11-01T09:41:51.791Z,15.34912109
2022-11-01T09:42:52.253Z,15.3692627
2022-11-01T09:43:52.702Z,15.3793335
2022-11-01T09:44:53.156Z,15.3994751
2022-11-01T09:45:53.752Z,15.4296875
2022-11-01T09:46:56.693Z,15.4296875
2022-11-01T09:47:54.723Z,15.3994751
2022-11-01T09:48:55.216Z,15.34912109
2022-11-01T09:49:55.718Z,15.34912109
2022-11-01T09:50:56.771Z,15.34912109
2022-11-01T09:51:57.195Z,15.3692627
2022-11-01T09:52:57.653Z,15.30883789
2022-11-01T09:53:58.093Z,15.32897949
2022-11-01T09:54:59.002Z,15.21820068
2022-11-01T09:56:30.426Z,15.18798828
2022-11-01T09:57:30.221Z,15.21820068
2022-11-01T09:58:30.703Z,15.19805908
2022-11-01T09:59:31.192Z,15.21820068
2022-11-01T10:00:32.486Z,15.24841309
2022-11-01T10:01:33.177Z,15.27862549
2022-11-01T10:02:33.524Z,15.29876709
2022-11-01T10:03:34.731Z,15.30883789
2022-11-01T10:04:35.297Z,15.32897949
2022-11-01T10:05:35.724Z,15.34912109
2022-11-01T10:06:36.218Z,15.34912109
2022-11-01T10:07:36.735Z,15.3692627
2022-11-01T10:08:37.243Z,15.3692627
2022-11-01T10:09:37.817Z,15.3994751
2022-11-01T10:10:39.000Z,15.4095459
2022-11-01T10:11:39.523Z,15.4296875
2022-11-01T10:12:39.945Z,15.4095459
2022-11-01T10:13:40.416Z,15.3994751
2022-11-01T10:14:40.833Z,15.3692627
2022-11-01T10:15:41.272Z,15.3692627
2022-11-01T10:16:42.919Z,15.3692627
2022-11-01T10:17:47.012Z,15.4095459
2022-11-01T10:18:44.265Z,15.4296875
2022-11-01T10:19:45.516Z,15.4598999
2022-11-01T10:20:47.025Z,15.52032471
2022-11-01T10:21:47.499Z,15.55053711
2022-11-01T10:22:47.926Z,15.58074951
2022-11-01T10:23:48.384Z,15.59082031
2022-11-01T10:24:48.852Z,15.64117432
2022-11-01T10:25:49.987Z,15.66131592
2022-11-01T10:26:50.736Z,15.68145752
2022-11-01T10:27:51.370Z,15.73181152
2022-11-01T10:28:52.022Z,15.74188232
2022-11-01T10:29:52.542Z,15.74188232
2022-11-01T10:30:53.991Z,15.76202393
2022-11-01T10:31:54.693Z,15.76202393
2022-11-01T10:32:55.734Z,15.73181152
2022-11-01T10:33:56.409Z,15.71166992
2022-11-01T10:34:56.898Z,15.70159912
2022-11-01T10:35:57.363Z,15.68145752
2022-11-01T10:36:58.914Z,15.67138672
2022-11-01T10:38:41.837Z,15.67138672
2022-11-01T10:39:54.103Z,15.64117432
2022-11-01T10:40:30.669Z,15.66131592
2022-11-01T10:41:31.937Z,15.64117432
2022-11-01T10:42:32.626Z,15.67138672
2022-11-01T10:43:33.234Z,15.68145752
2022-11-01T10:44:33.733Z,15.70159912
2022-11-01T10:45:34.188Z,15.73181152
2022-11-01T10:46:34.716Z,15.74188232
2022-11-01T10:47:35.927Z,15.74188232
2022-11-01T10:48:36.490Z,15.76202393
2022-11-01T10:50:00.716Z,15.74188232
2022-11-01T10:50:38.483Z,15.77209473
2022-11-01T10:51:38.902Z,15.81237793
2022-11-01T10:52:40.000Z,15.88287354
2022-11-01T10:53:40.451Z,15.92315674
2022-11-01T10:54:40.877Z,15.96343994
2022-11-01T10:55:41.507Z,15.98358154
2022-11-01T10:56:42.089Z,16.01379395
2022-11-01T10:57:43.406Z,16.06414795
2022-11-01T10:58:44.005Z,16.13464355
2022-11-01T10:59:44.459Z,16.18499756
2022-11-01T11:00:45.749Z,16.22528076
2022-11-01T11:01:46.489Z,16.26556396
2022-11-01T11:02:47.074Z,16.31591797
2022-11-01T11:03:47.642Z,16.36627197
2022-11-01T11:04:48.234Z,16.40655518
2022-11-01T11:05:48.819Z,16.39648438
2022-11-01T11:06:50.006Z,16.39648438
2022-11-01T11:07:50.901Z,16.33605957
2022-11-01T11:08:52.237Z,16.32598877
2022-11-01T11:09:52.792Z,16.39648438
2022-11-01T11:10:53.996Z,16.41662598
2022-11-01T11:11:54.658Z,16.43676758
2022-11-01T11:12:55.311Z,16.44683838
2022-11-01T11:13:56.148Z,16.51733398
2022-11-01T11:14:56.612Z,16.53747559
2022-11-01T11:15:57.046Z,16.53747559
2022-11-01T11:16:58.035Z,16.58782959
2022-11-01T11:18:28.769Z,16.64825439
2022-11-01T11:19:29.204Z,16.64825439
2022-11-01T11:20:29.670Z,16.668396
2022-11-01T11:21:30.714Z,16.6885376
2022-11-01T11:22:31.235Z,16.6885376
2022-11-01T11:23:31.792Z,16.6986084
2022-11-01T11:24:32.252Z,16.7288208
2022-11-01T11:25:32.697Z,16.7489624
2022-11-01T11:26:37.578Z,16.769104
2022-11-01T11:27:33.673Z,16.7791748
2022-11-01T11:28:34.527Z,16.79931641
2022-11-01T11:29:35.083Z,16.81945801
2022-11-01T11:30:36.016Z,16.83959961
2022-11-01T11:31:37.273Z,16.86981201
2022-11-01T11:32:37.781Z,16.86981201
2022-11-01T11:33:38.272Z,16.87988281
2022-11-01T11:34:38.679Z,16.87988281
2022-11-01T11:35:39.106Z,16.90002441
2022-11-01T11:36:41.818Z,16.92016602
2022-11-01T11:37:40.103Z,16.96044922
2022-11-01T11:38:40.623Z,16.96044922
2022-11-01T11:39:41.129Z,16.99066162
2022-11-01T11:40:41.611Z,17.03094482
2022-11-01T11:41:42.763Z,17.07122803
2022-11-01T11:42:43.230Z,17.15179443
2022-11-01T11:43:43.774Z,17.20214844
2022-11-01T11:44:44.287Z,17.24243164
2022-11-01T11:45:46.115Z,17.25250244
2022-11-01T11:46:46.645Z,17.25250244
2022-11-01T11:47:47.149Z,17.30285645
2022-11-01T11:48:47.574Z,17.28271484
2022-11-01T11:49:48.086Z,17.27264404
2022-11-01T11:50:48.588Z,17.25250244
2022-11-01T11:51:49.775Z,17.27264404
2022-11-01T11:52:50.995Z,17.30285645
2022-11-01T11:53:51.561Z,17.33306885
2022-11-01T11:54:51.985Z,17.33306885
2022-11-01T11:55:52.496Z,17.33306885
2022-11-01T11:56:53.023Z,17.35321045
2022-11-01T11:57:54.204Z,17.35321045
2022-11-01T11:58:54.665Z,17.35321045
2022-11-01T11:59:55.150Z,17.36328125
2022-11-01T12:00:55.683Z,17.39349365
2022-11-01T12:01:56.821Z,17.51434326
2022-11-01T12:03:27.838Z,17.57476807
2022-11-01T12:04:28.514Z,17.55462646
2022-11-01T12:05:29.000Z,17.55462646
2022-11-01T12:06:29.537Z,17.54455566
2022-11-01T12:07:30.104Z,17.54455566
2022-11-01T12:08:30.538Z,17.55462646
2022-11-01T12:09:31.061Z,17.60498047
2022-11-01T12:10:31.608Z,17.60498047
2022-11-01T12:11:33.040Z,17.62512207
2022-11-01T12:12:33.542Z,17.61505127
2022-11-01T12:13:33.988Z,17.62512207
2022-11-01T12:14:34.527Z,17.58483887
2022-11-01T12:15:36.953Z,17.54455566
2022-11-01T12:16:35.503Z,17.55462646
2022-11-01T12:17:35.973Z,17.57476807
2022-11-01T12:18:36.429Z,17.55462646
2022-11-01T12:19:37.005Z,17.55462646
2022-11-01T12:20:38.301Z,17.53448486
2022-11-01T12:21:39.518Z,17.53448486
2022-11-01T12:22:39.980Z,17.54455566
2022-11-01T12:23:40.505Z,17.55462646
2022-11-01T12:24:41.161Z,17.58483887
2022-11-01T12:25:41.613Z,17.58483887
2022-11-01T12:26:42.069Z,17.62512207
2022-11-01T12:27:42.530Z,17.62512207
2022-11-01T12:28:43.039Z,17.65533447
2022-11-01T12:29:44.567Z,17.64526367
2022-11-01T12:30:45.049Z,17.65533447
2022-11-01T12:31:46.233Z,17.70568848
2022-11-01T12:32:47.498Z,17.79632568
2022-11-01T12:33:48.005Z,17.86682129
2022-11-01T12:34:48.592Z,17.86682129
2022-11-01T12:35:49.131Z,17.83660889
2022-11-01T12:36:49.664Z,17.88696289
2022-11-01T12:37:50.542Z,17.9574585
2022-11-01T12:38:51.157Z,18.0682373
2022-11-01T12:39:51.704Z,18.10852051
2022-11-01T12:40:52.267Z,18.19915771
2022-11-01T12:41:53.272Z,18.27972412
2022-11-01T12:42:53.911Z,18.24951172
2022-11-01T12:43:54.429Z,18.12866211
2022-11-01T12:44:56.001Z,18.08837891
2022-11-01T12:45:56.911Z,18.0380249
2022-11-01T12:47:27.853Z,18.0480957
2022-11-01T12:48:28.360Z,18.0078125
2022-11-01T12:49:28.831Z,18.0078125
2022-11-01T12:50:30.312Z,18.0682373
2022-11-01T12:51:31.525Z,18.08837891
2022-11-01T12:52:32.094Z,18.09844971
2022-11-01T12:53:32.610Z,18.12866211
2022-11-01T12:54:33.126Z,18.0178833
2022-11-01T12:55:33.652Z,17.88696289
2022-11-01T12:56:34.271Z,17.82653809
2022-11-01T12:57:34.785Z,17.80639648
2022-11-01T12:58:36.264Z,17.79632568
2022-11-01T12:59:35.869Z,17.75604248
2022-11-01T13:00:36.551Z,17.72583008